Terminal Aerodrome Forecast
Issued by NWS

Home | Current Version | Previous Version | Graphics & Text | Print | Product List | Glossary On
Versions: 1 2 3 4 5 6 7 8 9 10 11 12 13
000
FTUS43 KMPX 311720
TAFRWF
TAF
KRWF 311720Z 3118/0118 13009KT P6SM SCT040 BKN200
     FM312100 13009KT P6SM SCT040 BKN100
     FM010400 13006KT P6SM SCT100 BKN250
     FM011400 14010KT P6SM FEW040 SCT100 BKN200=

USA.gov is the U.S. government's official web portal to all federal, state and local government web resources and services.